​ ​

Форум клана ЧПУшников

Информация о пользователе

Привет, Гость! Войдите или зарегистрируйтесь.


Вы здесь » Форум клана ЧПУшников » Лазерные станки


Лазерные станки

Тем 561 страница 640 из 669

Тема Ответов Просмотров Последнее сообщение
4 254 29-02-2016 22:43:44  nikson
5 210 27-02-2016 08:50:26  Flint2015
563 Тестирование размера реза  Виктор Краски
9 523 26-02-2016 16:55:55  daguss
564 кривая резка  Восходник
17 527 26-02-2016 00:06:30  semerochka
80 7158 22-02-2016 20:51:36  Kinetic
17 1145 22-02-2016 12:02:26  Kinetic
5 755 14-02-2016 15:24:59  gabber
7 711 14-02-2016 12:43:54  Zippo
12 409 12-02-2016 17:15:38  Yaroslavl
2 252 12-02-2016 10:23:44  Администратор
22 972 07-02-2016 15:27:40  Imobile
6 360 28-01-2016 17:09:21  StarPOM
25 1278 26-01-2016 15:23:58  Zippo
3 281 07-01-2016 00:45:42  okruk
4 289 05-01-2016 10:25:43  markaru
7 263 24-12-2015 12:08:34  lexus80
22 4408 21-12-2015 14:22:31  Kuz
14 458 14-12-2015 15:59:50  YuSTas
8 362 12-12-2015 20:20:10  Shamankiller
15 764 12-12-2015 18:02:39  racon75
38 1113 08-12-2015 23:46:50  asor
35 988 08-12-2015 18:35:57  dm6
8 416 07-12-2015 21:25:28  Dimon
25 957 04-12-2015 21:36:10  Silmaril
585 Лазерный станок Kamach II 1280 AS  радион рашитович
4 259 04-12-2015 20:36:20  Airside
4 334 04-12-2015 10:56:16  Drakonstar
9 737 29-11-2015 02:45:00  Лазорез
38 919 27-11-2015 18:12:36  ЫХ-000
41 1667 27-11-2015 12:34:06  Slym
44 2060 22-11-2015 11:50:31  _king_
591 mpc6525 - завис  Dr_dober
2 302 16-11-2015 12:54:39  Dr_dober
30 2382 09-11-2015 16:17:15  bort747
1 229 07-11-2015 14:48:03  MobileMan
594 Гравивовка на iPhone  Максим1975
9 640 28-10-2015 12:02:57  Восходник
44 2087 25-10-2015 16:54:39  tok17
3 263 25-10-2015 11:20:20  Фёдор Соколов
12 711 24-10-2015 11:53:29  yri71
21 2454 21-10-2015 23:59:06  dmitrymi
10 1040 20-10-2015 16:04:37  YuSTas
2 142 20-10-2015 15:35:36  Kuz
6 274 15-10-2015 09:36:29  Валерия-206
3 229 13-10-2015 11:20:10  Kuz
1 177 06-10-2015 16:34:03  coolmail
29 1380 30-09-2015 12:07:02  olejah
9 451 28-09-2015 04:25:16  BlackOx
606 Расфокусировка  Прокоп
8 354 24-09-2015 20:30:02  Прокоп
14 423 24-09-2015 20:07:38  Lord
6 335 23-09-2015 08:43:57  Airside
3 189 22-09-2015 17:06:12  PalSecam
3 249 22-09-2015 14:56:27  PalSecam
2 197 16-09-2015 22:31:09  Артем-70
35 653 04-09-2015 12:04:29  ecto
5 289 02-09-2015 16:35:06  Halkin
2 444 01-09-2015 22:56:15  Soundlab 77
615 Станок для резки  владимир1070
7 356 27-08-2015 01:47:38  tok17
3 531 05-08-2015 09:46:16  Zeech79
25 862 31-07-2015 11:57:43  Orly
5 434 19-07-2015 11:20:49  Imobile
11 395 15-07-2015 22:09:31  igorzh
5 514 04-07-2015 14:13:00  Fototek
8 3136 25-06-2015 17:57:47  Nokoone
622 Трубка Reci Z8  Zeech79
7 440 25-06-2015 17:53:05  Kuz
1 200 25-06-2015 04:34:38  ThunderLaser_Nolan
2 209 23-06-2015 17:46:06  Halkin
6 241 19-06-2015 13:27:58  Flint2015
8 1567 19-06-2015 10:30:36  shraik
24 1977 15-06-2015 12:51:19  AndreyTK
5 486 02-06-2015 13:45:22  Юрий Ф
4 679 22-05-2015 14:04:43  Neudrums
3 724 14-05-2015 20:26:36  Flint2015
4 354 10-05-2015 11:46:24  papakarlokzn
5 639 05-05-2015 18:49:36  ФокусССЗ
19 7003 04-05-2015 09:40:40  uxtbl
634 Закрыта Подскажите по резке акрила  Нюхоскоп
6 268 01-05-2015 18:13:38  mrak61ru
34 1178 29-04-2015 22:02:42  mrak61ru
3 196 28-04-2015 16:29:28  MOIS
7 725 25-04-2015 15:22:04  mrak
16 1307 23-04-2015 00:48:44  mrak
0 175 22-04-2015 09:47:04  икарик
640 LaserPro spirit 12w  Нюхоскоп
21 701 19-04-2015 22:46:48  mrak

Вы здесь » Форум клана ЧПУшников » Лазерные станки